createdAt,value
2023-02-13T00:00:52.974Z,2.176514
2023-02-13T00:02:00.658Z,2.176514
2023-02-13T00:03:10.327Z,2.216797
2023-02-13T00:04:18.995Z,2.247009
2023-02-13T00:05:27.638Z,2.25708
2023-02-13T00:06:37.299Z,2.307434
2023-02-13T00:07:46.015Z,2.307434
2023-02-13T00:08:55.858Z,2.327576
2023-02-13T00:10:05.540Z,2.317505
2023-02-13T00:11:15.232Z,2.317505
2023-02-13T00:12:24.934Z,2.287292
2023-02-13T00:13:33.605Z,2.287292
2023-02-13T00:14:42.261Z,2.277222
2023-02-13T00:15:52.061Z,2.25708
2023-02-13T00:17:01.634Z,2.247009
2023-02-13T00:18:11.331Z,2.277222
2023-02-13T00:19:19.987Z,2.277222
2023-02-13T00:20:29.729Z,2.307434
2023-02-13T00:21:39.372Z,2.307434
2023-02-13T00:22:48.044Z,2.317505
2023-02-13T00:23:56.712Z,2.287292
2023-02-13T00:25:05.397Z,2.277222
2023-02-13T00:26:13.118Z,2.25708
2023-02-13T00:27:22.749Z,2.247009
2023-02-13T00:28:32.496Z,2.277222
2023-02-13T00:29:42.067Z,2.277222
2023-02-13T00:30:51.880Z,2.287292
2023-02-13T00:32:01.728Z,2.307434
2023-02-13T00:33:11.147Z,2.307434
2023-02-13T00:34:20.817Z,2.317505
2023-02-13T00:35:28.492Z,2.327576
2023-02-13T00:36:38.175Z,2.327576
2023-02-13T00:37:47.850Z,2.347717
2023-02-13T00:38:55.505Z,2.37793
2023-02-13T00:40:06.191Z,2.37793
2023-02-13T00:41:13.880Z,2.418213
2023-02-13T00:42:22.538Z,2.428284
2023-02-13T00:43:32.267Z,2.438354
2023-02-13T00:44:40.919Z,2.428284
2023-02-13T00:45:50.618Z,2.428284
2023-02-13T00:46:59.288Z,2.388
2023-02-13T00:48:06.953Z,2.388
2023-02-13T00:49:16.720Z,2.388
2023-02-13T00:50:24.378Z,2.37793
2023-02-13T00:51:34.079Z,2.37793
2023-02-13T00:52:43.786Z,2.357788
2023-02-13T00:53:51.453Z,2.37793
2023-02-13T00:55:01.150Z,2.418213
2023-02-13T00:56:09.840Z,2.418213
2023-02-13T00:57:18.518Z,2.418213
2023-02-13T00:58:28.220Z,2.388
2023-02-13T00:59:36.848Z,2.347717
2023-02-13T01:00:45.554Z,2.327576
2023-02-13T01:01:55.248Z,2.317505
2023-02-13T01:03:02.912Z,2.317505
2023-02-13T01:04:12.558Z,2.317505
2023-02-13T01:05:21.231Z,2.327576
2023-02-13T01:06:29.916Z,2.347717
2023-02-13T01:07:39.605Z,2.357788
2023-02-13T01:08:48.323Z,2.357788
2023-02-13T01:09:56.945Z,2.357788
2023-02-13T01:11:06.652Z,2.388
2023-02-13T01:12:16.332Z,2.418213
2023-02-13T01:13:26.019Z,2.418213
2023-02-13T01:14:34.679Z,2.438354
2023-02-13T01:15:43.482Z,2.428284
2023-02-13T01:16:53.080Z,2.438354
2023-02-13T01:18:01.820Z,2.488708
2023-02-13T01:19:11.500Z,2.458496
2023-02-13T01:20:21.326Z,2.458496
2023-02-13T01:21:29.995Z,2.458496
2023-02-13T01:22:39.671Z,2.458496
2023-02-13T01:23:49.390Z,2.458496
2023-02-13T01:24:59.100Z,2.438354
2023-02-13T01:26:08.762Z,2.37793
2023-02-13T01:27:17.235Z,2.357788
2023-02-13T01:28:26.059Z,2.37793
2023-02-13T01:29:35.820Z,2.357788
2023-02-13T01:30:44.533Z,2.347717
2023-02-13T01:31:54.180Z,2.347717
2023-02-13T01:33:02.792Z,2.37793
2023-02-13T01:34:12.444Z,2.438354
2023-02-13T01:35:22.147Z,2.428284
2023-02-13T01:36:30.792Z,2.418213
2023-02-13T01:37:40.503Z,2.388
2023-02-13T01:38:49.183Z,2.37793
2023-02-13T01:39:57.869Z,2.357788
2023-02-13T01:41:07.581Z,2.357788
2023-02-13T01:42:15.235Z,2.428284
2023-02-13T01:43:24.885Z,2.438354
2023-02-13T01:44:33.554Z,2.438354
2023-02-13T01:45:42.250Z,2.428284
2023-02-13T01:46:51.990Z,2.418213
2023-02-13T01:48:00.630Z,2.418213
2023-02-13T01:49:09.287Z,2.388
2023-02-13T01:50:18.957Z,2.37793
2023-02-13T01:51:26.652Z,2.327576
2023-02-13T01:52:36.394Z,2.327576
2023-02-13T01:53:45.080Z,2.327576
2023-02-13T01:54:52.751Z,2.327576
2023-02-13T01:56:02.443Z,2.327576
2023-02-13T01:57:11.230Z,2.347717
2023-02-13T01:58:20.829Z,2.347717
2023-02-13T01:59:29.493Z,2.327576
2023-02-13T02:00:37.160Z,2.307434
2023-02-13T02:01:46.880Z,2.287292
2023-02-13T02:02:55.523Z,2.307434
2023-02-13T02:04:05.228Z,2.317505
2023-02-13T02:05:14.894Z,2.317505
2023-02-13T02:06:24.556Z,2.317505
2023-02-13T02:07:34.222Z,2.317505
2023-02-13T02:08:43.885Z,2.357788
2023-02-13T02:09:51.558Z,2.357788
2023-02-13T02:11:01.241Z,2.347717
2023-02-13T02:12:10.914Z,2.317505
2023-02-13T02:13:19.629Z,2.317505
2023-02-13T02:14:29.237Z,2.307434
2023-02-13T02:15:36.953Z,2.287292
2023-02-13T02:16:46.614Z,2.287292
2023-02-13T02:17:56.273Z,2.287292
2023-02-13T02:19:05.950Z,2.277222
2023-02-13T02:20:15.610Z,2.25708
2023-02-13T02:21:24.284Z,2.236938
2023-02-13T02:22:33.963Z,2.216797
2023-02-13T02:23:43.637Z,2.196655
2023-02-13T02:24:52.299Z,2.166443
2023-02-13T02:26:00.958Z,2.166443
2023-02-13T02:27:10.880Z,2.166443
2023-02-13T02:28:19.603Z,2.146301
2023-02-13T02:29:29.243Z,2.166443
2023-02-13T02:30:38.943Z,2.146301
2023-02-13T02:31:47.608Z,2.146301
2023-02-13T02:32:57.215Z,2.146301
2023-02-13T02:34:06.911Z,2.13623
2023-02-13T02:35:15.577Z,2.13623
2023-02-13T02:36:25.252Z,2.12616
2023-02-13T02:37:32.963Z,2.095947
2023-02-13T02:38:42.662Z,2.095947
2023-02-13T02:39:51.315Z,2.095947
2023-02-13T02:41:01.007Z,2.065735
2023-02-13T02:42:10.697Z,2.075806
2023-02-13T02:43:19.368Z,2.095947
2023-02-13T02:44:29.084Z,2.065735
2023-02-13T02:45:38.858Z,2.055664
2023-02-13T02:46:47.498Z,2.065735
2023-02-13T02:47:57.134Z,2.075806
2023-02-13T02:49:05.803Z,2.095947
2023-02-13T02:50:14.457Z,2.106018
2023-02-13T02:51:24.120Z,2.13623
2023-02-13T02:52:31.770Z,2.166443
2023-02-13T02:53:40.435Z,2.166443
2023-02-13T02:54:50.169Z,2.13623
2023-02-13T02:55:57.847Z,2.106018
2023-02-13T02:57:07.517Z,2.106018
2023-02-13T02:58:16.184Z,2.12616
2023-02-13T02:59:23.856Z,2.106018
2023-02-13T03:00:33.578Z,2.095947
2023-02-13T03:01:42.249Z,2.095947
2023-02-13T03:02:50.883Z,2.075806
2023-02-13T03:04:00.561Z,2.106018
2023-02-13T03:05:08.221Z,2.106018
2023-02-13T03:06:17.884Z,2.095947
2023-02-13T03:07:26.570Z,2.075806
2023-02-13T03:08:36.247Z,2.075806
2023-02-13T03:09:45.879Z,2.015381
2023-02-13T03:10:54.617Z,1.995239
2023-02-13T03:12:04.200Z,2.015381
2023-02-13T03:13:13.901Z,1.995239
2023-02-13T03:14:21.570Z,2.015381
2023-02-13T03:15:30.242Z,1.985168
2023-02-13T03:16:39.945Z,1.954956
2023-02-13T03:17:48.605Z,1.954956
2023-02-13T03:18:58.292Z,1.965027
2023-02-13T03:20:05.946Z,1.995239
2023-02-13T03:21:15.603Z,1.985168
2023-02-13T03:22:25.278Z,1.995239
2023-02-13T03:23:34.943Z,1.965027
2023-02-13T03:24:44.649Z,1.944885
2023-02-13T03:25:53.323Z,1.914673
2023-02-13T03:27:01.004Z,1.914673
2023-02-13T03:28:10.739Z,1.87439
2023-02-13T03:29:19.416Z,1.88446
2023-02-13T03:30:29.204Z,1.88446
2023-02-13T03:31:36.886Z,1.844177
2023-02-13T03:32:45.497Z,1.844177
2023-02-13T03:33:55.202Z,1.87439
2023-02-13T03:35:02.847Z,1.854248
2023-02-13T03:36:12.533Z,1.88446
2023-02-13T03:37:21.204Z,1.914673
2023-02-13T03:38:28.854Z,1.924744
2023-02-13T03:39:38.545Z,1.914673
2023-02-13T03:40:47.199Z,1.944885
2023-02-13T03:41:55.893Z,1.924744
2023-02-13T03:43:04.592Z,1.924744
2023-02-13T03:44:13.245Z,1.88446
2023-02-13T03:45:22.891Z,1.87439
2023-02-13T03:46:31.570Z,1.87439
2023-02-13T03:47:39.275Z,1.844177
2023-02-13T03:48:48.939Z,1.803894
2023-02-13T03:49:56.615Z,1.773682
2023-02-13T03:51:06.240Z,1.713257
2023-02-13T03:52:15.901Z,1.703186
2023-02-13T03:53:24.591Z,1.672974
2023-02-13T03:54:34.254Z,1.672974
2023-02-13T03:55:42.926Z,1.683044
2023-02-13T03:56:52.580Z,1.703186
2023-02-13T03:58:02.250Z,1.683044
2023-02-13T03:59:09.935Z,1.683044
2023-02-13T04:00:19.589Z,1.672974
2023-02-13T04:01:29.385Z,1.662903
2023-02-13T04:02:38.050Z,1.582336
2023-02-13T04:03:47.703Z,1.582336
2023-02-13T04:04:56.416Z,1.582336
2023-02-13T04:06:06.125Z,1.582336
2023-02-13T04:07:14.747Z,1.582336
2023-02-13T04:08:23.428Z,1.592407
2023-02-13T04:09:33.126Z,1.602478
2023-02-13T04:10:42.810Z,1.602478
2023-02-13T04:11:51.494Z,1.602478
2023-02-13T04:13:01.201Z,1.602478
2023-02-13T04:14:09.861Z,1.562195
2023-02-13T04:15:17.535Z,1.552124
2023-02-13T04:16:27.280Z,1.531982
2023-02-13T04:17:36.922Z,1.521912
2023-02-13T04:18:45.607Z,1.481628
2023-02-13T04:19:55.260Z,1.481628
2023-02-13T04:21:03.927Z,1.481628
2023-02-13T04:22:13.655Z,1.451416
2023-02-13T04:23:23.279Z,1.441345
2023-02-13T04:24:31.930Z,1.411133
2023-02-13T04:25:41.601Z,1.350708
2023-02-13T04:26:49.265Z,1.340637
2023-02-13T04:27:57.935Z,1.350708
2023-02-13T04:29:07.601Z,1.350708
2023-02-13T04:30:15.253Z,1.340637
2023-02-13T04:31:25.045Z,1.320496
2023-02-13T04:32:33.569Z,1.320496
2023-02-13T04:33:43.305Z,1.340637
2023-02-13T04:34:51.967Z,1.320496
2023-02-13T04:36:00.648Z,1.350708
2023-02-13T04:37:09.317Z,1.350708
2023-02-13T04:38:19.018Z,1.37085
2023-02-13T04:39:27.734Z,1.350708
2023-02-13T04:40:37.404Z,1.37085
2023-02-13T04:41:47.099Z,1.38092
2023-02-13T04:42:54.738Z,1.401062
2023-02-13T04:44:04.404Z,1.401062
2023-02-13T04:45:13.101Z,1.411133
2023-02-13T04:46:21.799Z,1.38092
2023-02-13T04:47:31.446Z,1.320496
2023-02-13T04:48:40.120Z,1.310425
2023-02-13T04:49:49.760Z,1.340637
2023-02-13T04:50:58.725Z,1.350708
2023-02-13T04:52:08.119Z,1.320496
2023-02-13T04:53:17.750Z,1.340637
2023-02-13T04:54:26.460Z,1.310425
2023-02-13T04:55:36.085Z,1.300354
2023-02-13T04:56:45.771Z,1.280212
2023-02-13T04:57:52.425Z,1.280212
2023-02-13T04:59:02.079Z,1.280212
2023-02-13T05:00:10.741Z,1.300354
2023-02-13T05:01:19.486Z,1.260071
2023-02-13T05:02:29.105Z,1.300354
2023-02-13T05:03:36.783Z,1.310425
2023-02-13T05:04:46.491Z,1.340637
2023-02-13T05:05:55.101Z,1.340637
2023-02-13T05:07:02.752Z,1.340637
2023-02-13T05:08:12.452Z,1.38092
2023-02-13T05:09:22.136Z,1.411133
2023-02-13T05:10:30.826Z,1.421204
2023-02-13T05:11:40.464Z,1.441345
2023-02-13T05:12:49.141Z,1.451416
2023-02-13T05:13:57.855Z,1.421204
2023-02-13T05:15:07.565Z,1.411133
2023-02-13T05:16:16.280Z,1.320496
2023-02-13T05:17:28.205Z,1.340637
2023-02-13T05:18:35.595Z,1.300354
2023-02-13T05:19:44.288Z,1.260071
2023-02-13T05:20:53.955Z,1.229858
2023-02-13T05:22:02.640Z,1.239929
2023-02-13T05:23:11.402Z,1.239929
2023-02-13T05:24:21.150Z,1.260071
2023-02-13T05:25:29.853Z,1.300354
2023-02-13T05:26:38.581Z,1.340637
2023-02-13T05:27:48.280Z,1.37085
2023-02-13T05:28:57.922Z,1.38092
2023-02-13T05:30:06.581Z,1.37085
2023-02-13T05:31:15.364Z,1.37085
2023-02-13T05:32:25.023Z,1.350708
2023-02-13T05:33:33.730Z,1.350708
2023-02-13T05:34:42.419Z,1.350708
2023-02-13T05:35:52.101Z,1.350708
2023-02-13T05:37:01.012Z,1.37085
2023-02-13T05:38:10.697Z,1.401062
2023-02-13T05:39:19.370Z,1.401062
2023-02-13T05:40:29.047Z,1.38092
2023-02-13T05:41:38.731Z,1.37085
2023-02-13T05:42:46.506Z,1.37085
2023-02-13T05:43:54.123Z,1.310425
2023-02-13T05:45:03.814Z,1.260071
2023-02-13T05:46:12.554Z,1.199646
2023-02-13T05:47:22.271Z,1.189575
2023-02-13T05:48:31.987Z,1.199646
2023-02-13T05:49:40.653Z,1.189575
2023-02-13T05:50:50.307Z,1.169434
2023-02-13T05:51:58.029Z,1.169434
2023-02-13T05:53:08.605Z,1.12915
2023-02-13T05:54:18.509Z,1.058655
2023-02-13T05:55:26.184Z,1.048584
2023-02-13T05:56:35.864Z,1.058655
2023-02-13T05:57:44.560Z,1.098938
2023-02-13T05:58:53.268Z,1.11908
2023-02-13T06:00:02.961Z,1.12915
2023-02-13T06:01:11.625Z,1.159363
2023-02-13T06:02:20.320Z,1.139221
2023-02-13T06:03:30.071Z,1.159363
2023-02-13T06:04:38.603Z,1.159363
2023-02-13T06:05:48.265Z,1.189575
2023-02-13T06:06:56.922Z,1.159363
2023-02-13T06:08:05.580Z,1.159363
2023-02-13T06:09:15.237Z,1.11908
2023-02-13T06:10:23.896Z,1.12915
2023-02-13T06:11:32.576Z,1.098938
2023-02-13T06:12:42.245Z,1.098938
2023-02-13T06:13:49.905Z,1.078796
2023-02-13T06:14:59.587Z,1.098938
2023-02-13T06:16:09.342Z,1.11908
2023-02-13T06:17:17.892Z,1.078796
2023-02-13T06:18:27.568Z,1.048584
2023-02-13T06:19:36.227Z,1.058655
2023-02-13T06:20:45.911Z,1.058655
2023-02-13T06:21:55.584Z,1.098938
2023-02-13T06:23:04.282Z,1.098938
2023-02-13T06:24:13.969Z,1.12915
2023-02-13T06:25:22.628Z,1.139221
2023-02-13T06:26:30.267Z,1.159363
2023-02-13T06:27:39.940Z,1.11908
2023-02-13T06:28:47.679Z,1.11908
2023-02-13T06:29:57.286Z,1.12915
2023-02-13T06:31:07.511Z,1.139221
2023-02-13T06:32:16.978Z,1.169434
2023-02-13T06:33:26.647Z,1.37085
2023-02-13T06:34:36.341Z,1.481628
2023-02-13T06:35:44.996Z,1.441345
2023-02-13T06:36:54.760Z,1.401062
2023-02-13T06:38:03.355Z,1.401062
2023-02-13T06:39:13.017Z,1.38092
2023-02-13T06:40:22.927Z,1.38092
2023-02-13T06:41:30.582Z,1.38092
2023-02-13T06:42:40.288Z,1.350708
2023-02-13T06:43:48.940Z,1.340637
2023-02-13T06:44:56.605Z,1.350708
2023-02-13T06:46:06.286Z,1.340637
2023-02-13T06:47:13.981Z,1.37085
2023-02-13T06:48:23.654Z,1.37085
2023-02-13T06:49:33.314Z,1.38092
2023-02-13T06:50:41.976Z,1.401062
2023-02-13T06:51:51.659Z,1.401062
2023-02-13T06:52:59.316Z,1.350708
2023-02-13T06:54:06.978Z,1.320496
2023-02-13T06:55:16.664Z,1.300354
2023-02-13T06:56:25.301Z,1.310425
2023-02-13T06:57:35.012Z,1.260071
2023-02-13T06:58:44.689Z,1.239929
2023-02-13T06:59:53.340Z,1.260071
2023-02-13T07:01:03.086Z,1.260071
2023-02-13T07:02:12.743Z,1.229858
2023-02-13T07:03:22.452Z,1.260071
2023-02-13T07:04:32.092Z,1.280212
2023-02-13T07:05:40.814Z,1.280212
2023-02-13T07:06:49.474Z,1.300354
2023-02-13T07:07:59.150Z,1.310425
2023-02-13T07:09:07.834Z,1.260071
2023-02-13T07:10:17.489Z,1.229858
2023-02-13T07:11:27.141Z,1.260071
2023-02-13T07:12:35.795Z,1.280212
2023-02-13T07:13:46.450Z,1.320496
2023-02-13T07:14:55.144Z,1.350708
2023-02-13T07:16:04.900Z,1.350708
2023-02-13T07:17:14.546Z,1.37085
2023-02-13T07:18:22.175Z,1.37085
2023-02-13T07:19:31.898Z,1.37085
2023-02-13T07:20:41.545Z,1.350708
2023-02-13T07:21:49.196Z,1.37085
2023-02-13T07:22:58.879Z,1.401062
2023-02-13T07:24:08.032Z,1.421204
2023-02-13T07:25:15.169Z,1.481628
2023-02-13T07:26:24.996Z,1.481628
2023-02-13T07:27:34.643Z,1.50177
2023-02-13T07:28:44.324Z,1.521912
2023-02-13T07:29:54.957Z,1.531982
2023-02-13T07:31:04.735Z,1.521912
2023-02-13T07:32:13.323Z,1.521912
2023-02-13T07:33:21.974Z,1.552124
2023-02-13T07:34:31.670Z,1.562195
2023-02-13T07:35:41.369Z,1.592407
2023-02-13T07:36:49.995Z,1.602478
2023-02-13T07:37:59.680Z,1.662903
2023-02-13T07:39:08.363Z,1.683044
2023-02-13T07:40:18.018Z,1.713257
2023-02-13T07:41:26.694Z,1.733398
2023-02-13T07:42:34.405Z,1.743469
2023-02-13T07:43:44.146Z,1.743469
2023-02-13T07:44:53.811Z,1.733398
2023-02-13T07:46:03.449Z,1.683044
2023-02-13T07:47:13.104Z,1.703186
2023-02-13T07:48:22.775Z,1.733398
2023-02-13T07:49:32.448Z,1.763611
2023-02-13T07:50:41.133Z,1.803894
2023-02-13T07:51:50.869Z,1.87439
2023-02-13T07:53:00.516Z,1.894531
2023-02-13T07:54:10.224Z,1.954956
2023-02-13T07:55:18.982Z,1.995239
2023-02-13T07:56:28.656Z,1.985168
2023-02-13T07:57:37.309Z,1.995239
2023-02-13T07:58:46.979Z,1.995239
2023-02-13T07:59:56.635Z,2.015381
2023-02-13T08:01:06.340Z,2.035522
2023-02-13T08:02:16.134Z,2.065735
2023-02-13T08:03:24.774Z,2.075806
2023-02-13T08:04:34.350Z,2.035522
2023-02-13T08:05:44.031Z,2.015381
2023-02-13T08:06:52.767Z,1.965027
2023-02-13T08:08:02.383Z,1.995239
2023-02-13T08:09:12.073Z,1.995239
2023-02-13T08:10:20.749Z,2.015381
2023-02-13T08:11:30.418Z,2.015381
2023-02-13T08:12:39.196Z,2.055664
2023-02-13T08:13:47.907Z,2.065735
2023-02-13T08:14:57.560Z,2.075806
2023-02-13T08:16:06.315Z,2.095947
2023-02-13T08:17:15.888Z,2.12616
2023-02-13T08:18:25.575Z,2.075806
2023-02-13T08:19:35.251Z,2.065735
2023-02-13T08:20:44.921Z,2.095947
2023-02-13T08:21:53.574Z,2.12616
2023-02-13T08:23:02.325Z,2.166443
2023-02-13T08:24:11.931Z,2.166443
2023-02-13T08:25:20.640Z,2.166443
2023-02-13T08:26:30.337Z,2.176514
2023-02-13T08:27:39.028Z,2.146301
2023-02-13T08:28:47.679Z,2.106018
2023-02-13T08:29:57.385Z,2.065735
2023-02-13T08:31:06.180Z,2.055664
2023-02-13T08:32:16.085Z,2.075806
2023-02-13T08:33:25.707Z,2.015381
2023-02-13T08:34:35.395Z,1.914673
2023-02-13T08:35:45.206Z,1.88446
2023-02-13T08:36:53.873Z,1.894531
2023-02-13T08:38:02.515Z,1.894531
2023-02-13T08:39:12.212Z,1.88446
2023-02-13T08:40:20.946Z,1.854248
2023-02-13T08:41:30.505Z,1.854248
2023-02-13T08:42:40.148Z,1.944885
2023-02-13T08:43:48.823Z,1.88446
2023-02-13T08:44:58.884Z,1.783752
2023-02-13T08:46:08.290Z,1.763611
2023-02-13T08:47:17.133Z,1.743469
2023-02-13T08:48:26.793Z,1.763611
2023-02-13T08:49:35.451Z,1.763611
2023-02-13T08:50:44.092Z,1.803894
2023-02-13T08:51:53.772Z,1.854248
2023-02-13T08:53:01.454Z,1.88446
2023-02-13T08:54:11.102Z,1.954956
2023-02-13T08:55:20.829Z,1.995239
2023-02-13T08:56:29.413Z,2.055664
2023-02-13T08:57:39.179Z,2.095947
2023-02-13T08:58:47.872Z,2.12616
2023-02-13T08:59:57.526Z,2.13623
2023-02-13T09:01:06.229Z,2.166443
2023-02-13T09:02:14.873Z,2.146301
2023-02-13T09:03:24.524Z,2.196655
2023-02-13T09:04:34.216Z,2.247009
2023-02-13T09:05:43.901Z,2.307434
2023-02-13T09:06:53.573Z,2.357788
2023-02-13T09:08:01.246Z,2.418213
2023-02-13T09:09:09.886Z,2.388
2023-02-13T09:10:19.592Z,2.347717
2023-02-13T09:11:29.286Z,2.347717
2023-02-13T09:12:38.932Z,2.388
2023-02-13T09:13:47.602Z,2.428284
2023-02-13T09:14:56.284Z,2.468567
2023-02-13T09:16:05.960Z,2.498779
2023-02-13T09:17:14.618Z,2.488708
2023-02-13T09:18:22.264Z,2.488708
2023-02-13T09:19:31.927Z,2.50885
2023-02-13T09:20:41.602Z,2.357788
2023-02-13T09:21:51.301Z,2.247009
2023-02-13T09:22:59.969Z,2.196655
2023-02-13T09:24:08.634Z,2.176514
2023-02-13T09:25:18.333Z,2.13623
2023-02-13T09:26:27.984Z,2.106018
2023-02-13T09:27:37.735Z,1.995239
2023-02-13T09:28:46.415Z,1.944885
2023-02-13T09:29:55.034Z,1.985168
2023-02-13T09:31:04.844Z,2.075806
2023-02-13T09:32:12.478Z,2.146301
2023-02-13T09:33:22.040Z,2.247009
2023-02-13T09:34:31.711Z,2.277222
2023-02-13T09:35:40.383Z,2.25708
2023-02-13T09:36:50.064Z,2.247009
2023-02-13T09:37:57.726Z,2.307434
2023-02-13T09:39:06.404Z,2.327576
2023-02-13T09:40:15.080Z,2.37793
2023-02-13T09:41:23.741Z,2.418213
2023-02-13T09:42:33.463Z,2.37793
2023-02-13T09:43:42.156Z,2.428284
2023-02-13T09:44:51.823Z,2.37793
2023-02-13T09:46:01.726Z,2.327576
2023-02-13T09:47:10.151Z,2.327576
2023-02-13T09:48:19.817Z,2.347717
2023-02-13T09:49:29.485Z,2.37793
2023-02-13T09:50:38.291Z,2.428284
2023-02-13T09:51:47.979Z,2.458496
2023-02-13T09:52:56.626Z,2.488708
2023-02-13T09:54:05.279Z,2.559204
2023-02-13T09:55:14.965Z,2.619629
2023-02-13T09:56:23.646Z,2.690125
2023-02-13T09:57:32.308Z,2.669983
2023-02-13T09:58:41.972Z,2.528992
2023-02-13T09:59:49.650Z,2.468567
2023-02-13T10:00:59.317Z,2.37793
2023-02-13T10:02:07.982Z,2.458496
2023-02-13T10:03:17.646Z,2.438354
2023-02-13T10:04:27.322Z,2.488708
2023-02-13T10:05:35.993Z,2.539062
2023-02-13T10:06:44.666Z,2.599487
2023-02-13T10:07:54.390Z,2.619629
2023-02-13T10:09:02.061Z,2.539062
2023-02-13T10:10:11.718Z,2.619629
2023-02-13T10:11:20.400Z,2.710266
2023-02-13T10:12:29.147Z,2.750549
2023-02-13T10:13:38.862Z,2.740479
2023-02-13T10:14:47.526Z,2.790833
2023-02-13T10:15:57.539Z,2.821045
2023-02-13T10:17:06.918Z,2.871399
2023-02-13T10:18:14.549Z,2.891541
2023-02-13T10:19:24.313Z,2.931824
2023-02-13T10:20:33.942Z,3.002319
2023-02-13T10:21:43.592Z,3.082886
2023-02-13T10:22:53.343Z,3.113098
2023-02-13T10:24:02.015Z,3.163452
2023-02-13T10:25:10.676Z,3.213806
2023-02-13T10:26:20.398Z,3.254089
2023-02-13T10:27:29.006Z,3.314514
2023-02-13T10:28:38.755Z,3.344727
2023-02-13T10:29:48.347Z,3.314514
2023-02-13T10:30:58.185Z,3.223877
2023-02-13T10:32:07.876Z,3.113098
2023-02-13T10:33:17.404Z,3.143311
2023-02-13T10:34:26.056Z,3.163452
2023-02-13T10:35:35.720Z,3.223877
2023-02-13T10:36:44.435Z,3.213806
2023-02-13T10:37:54.091Z,3.193665
2023-02-13T10:39:02.831Z,3.213806
2023-02-13T10:40:12.445Z,3.233948
2023-02-13T10:41:22.116Z,3.284302
2023-02-13T10:42:30.799Z,3.314514
2023-02-13T10:43:40.468Z,3.254089
2023-02-13T10:44:50.134Z,3.082886
2023-02-13T10:45:59.225Z,2.921753
2023-02-13T10:47:08.480Z,2.931824
2023-02-13T10:48:17.225Z,2.951965
2023-02-13T10:49:27.864Z,3.042603
2023-02-13T10:50:37.540Z,3.082886
2023-02-13T10:51:45.206Z,3.072815
2023-02-13T10:52:53.855Z,3.052673
2023-02-13T10:54:03.574Z,3.052673
2023-02-13T10:55:12.256Z,3.032532
2023-02-13T10:56:21.937Z,3.01239
2023-02-13T10:57:31.632Z,3.052673
2023-02-13T10:58:40.286Z,3.072815
2023-02-13T10:59:49.980Z,3.052673
2023-02-13T11:00:57.619Z,2.931824
2023-02-13T11:02:06.277Z,2.831116
2023-02-13T11:03:15.970Z,2.851257
2023-02-13T11:04:24.736Z,2.861328
2023-02-13T11:05:34.333Z,2.770691
2023-02-13T11:06:42.990Z,2.740479
2023-02-13T11:07:51.687Z,2.750549
2023-02-13T11:09:01.363Z,2.720337
2023-02-13T11:10:09.024Z,2.669983
2023-02-13T11:11:17.720Z,2.639771
2023-02-13T11:12:27.392Z,2.710266
2023-02-13T11:13:36.064Z,2.770691
2023-02-13T11:14:45.723Z,2.770691
2023-02-13T11:15:54.418Z,2.790833
2023-02-13T11:17:03.117Z,2.740479
2023-02-13T11:18:12.774Z,2.720337
2023-02-13T11:19:20.410Z,2.710266
2023-02-13T11:20:29.112Z,2.639771
2023-02-13T11:21:38.746Z,2.619629
2023-02-13T11:22:47.563Z,2.559204
2023-02-13T11:23:57.264Z,2.559204
2023-02-13T11:25:06.888Z,2.609558
2023-02-13T11:26:16.569Z,2.669983
2023-02-13T11:27:26.248Z,2.539062
2023-02-13T11:28:33.994Z,2.539062
2023-02-13T11:29:43.624Z,2.468567
2023-02-13T11:30:52.352Z,2.528992
2023-02-13T11:32:01.103Z,2.569275
2023-02-13T11:33:10.606Z,2.680054
2023-02-13T11:34:18.324Z,2.690125
2023-02-13T11:35:28.027Z,2.770691
2023-02-13T11:36:37.735Z,2.861328
2023-02-13T11:37:46.394Z,2.831116
2023-02-13T11:38:56.109Z,2.891541
2023-02-13T11:40:04.785Z,2.931824
2023-02-13T11:41:13.439Z,2.951965
2023-02-13T11:42:23.106Z,2.921753
2023-02-13T11:43:31.828Z,2.931824
2023-02-13T11:44:41.505Z,2.951965
2023-02-13T11:45:49.191Z,2.972107
2023-02-13T11:46:58.972Z,3.042603
2023-02-13T11:48:08.635Z,3.113098
2023-02-13T11:49:16.383Z,3.163452
2023-02-13T11:50:37.053Z,3.113098
2023-02-13T11:51:46.754Z,3.032532
2023-02-13T11:52:56.417Z,3.072815
2023-02-13T11:54:06.061Z,3.163452
2023-02-13T11:55:15.736Z,3.254089
2023-02-13T11:56:23.401Z,3.344727
2023-02-13T11:57:32.105Z,3.395081
2023-02-13T11:58:41.806Z,3.344727
2023-02-13T11:59:50.424Z,3.344727
2023-02-13T12:01:00.105Z,3.395081
2023-02-13T12:02:08.820Z,3.445435
2023-02-13T12:03:16.613Z,3.445435
2023-02-13T12:04:26.122Z,3.505859
2023-02-13T12:05:34.781Z,3.505859
2023-02-13T12:06:43.434Z,3.505859
2023-02-13T12:07:53.198Z,3.596497
2023-02-13T12:09:02.905Z,3.687134
2023-02-13T12:10:12.557Z,3.757629
2023-02-13T12:11:21.206Z,3.797913
2023-02-13T12:12:28.840Z,3.878479
2023-02-13T12:13:38.498Z,3.777771
2023-02-13T12:14:47.178Z,3.656921
2023-02-13T12:15:57.166Z,3.586426
2023-02-13T12:17:06.482Z,3.596497
2023-02-13T12:18:17.123Z,3.586426
2023-02-13T12:19:26.783Z,3.626709
2023-02-13T12:20:35.717Z,3.586426
2023-02-13T12:21:43.393Z,3.505859
2023-02-13T12:22:52.090Z,3.364868
2023-02-13T12:24:01.792Z,3.284302
2023-02-13T12:25:11.396Z,3.143311
2023-02-13T12:26:21.094Z,3.143311
2023-02-13T12:27:29.753Z,3.213806
2023-02-13T12:28:39.453Z,3.284302
2023-02-13T12:29:49.097Z,3.405151
2023-02-13T12:30:58.163Z,3.445435
2023-02-13T12:32:06.536Z,3.526001
2023-02-13T12:33:15.205Z,3.576355
2023-02-13T12:34:24.863Z,3.626709
2023-02-13T12:35:34.558Z,3.697205
2023-02-13T12:36:42.220Z,3.7677
2023-02-13T12:37:51.956Z,3.777771
2023-02-13T12:39:00.603Z,3.878479
2023-02-13T12:40:09.323Z,4.009399
2023-02-13T12:41:18.929Z,4.120178
2023-02-13T12:42:27.553Z,4.190674
2023-02-13T12:43:36.223Z,4.200745
2023-02-13T12:44:45.901Z,4.261169
2023-02-13T12:45:54.631Z,4.321594
2023-02-13T12:47:04.201Z,4.382019
2023-02-13T12:48:12.859Z,4.482727
2023-02-13T12:49:20.504Z,4.482727
2023-02-13T12:50:29.169Z,4.382019
2023-02-13T12:51:38.835Z,4.341736
2023-02-13T12:52:48.502Z,4.382019
2023-02-13T12:53:58.178Z,4.382019
2023-02-13T12:55:06.854Z,4.311523
2023-02-13T12:56:16.534Z,4.220886
2023-02-13T12:57:26.164Z,4.241028
2023-02-13T12:58:34.842Z,4.311523
2023-02-13T12:59:44.527Z,4.371948
2023-02-13T13:00:53.370Z,4.412231
2023-02-13T13:02:02.074Z,4.422302
2023-02-13T13:03:11.708Z,4.492798
2023-02-13T13:04:20.384Z,4.553223
2023-02-13T13:05:30.033Z,4.583435
2023-02-13T13:06:38.710Z,4.341736
2023-02-13T13:07:47.368Z,4.311523
2023-02-13T13:08:57.027Z,4.049683
2023-02-13T13:10:05.696Z,3.727417
2023-02-13T13:11:14.335Z,3.616638
2023-02-13T13:12:24.058Z,3.546143
2023-02-13T13:13:32.667Z,3.505859
2023-02-13T13:14:41.336Z,3.596497
2023-02-13T13:15:50.996Z,3.677063
2023-02-13T13:16:59.663Z,3.797913
2023-02-13T13:18:09.323Z,3.868408
2023-02-13T13:19:18.006Z,3.938904
2023-02-13T13:20:27.694Z,4.009399
2023-02-13T13:21:35.328Z,4.039612
2023-02-13T13:22:45.000Z,4.009399
2023-02-13T13:23:53.748Z,4.01947
2023-02-13T13:25:02.411Z,3.979187
2023-02-13T13:26:12.093Z,3.979187
2023-02-13T13:27:20.753Z,3.918762
2023-02-13T13:28:30.432Z,3.959045
2023-02-13T13:29:40.086Z,4.009399
2023-02-13T13:30:48.781Z,4.049683
2023-02-13T13:31:57.522Z,4.079895
2023-02-13T13:33:06.050Z,4.079895
2023-02-13T13:34:14.730Z,4.14032
2023-02-13T13:35:24.391Z,4.200745